sensor_id;sensor_type;location;lat;lon;timestamp;P1;durP1;ratioP1;P2;durP2;ratioP2
47219;SDS011;32961;51.936;4.788;2023-04-24T00:00:14;5.18;;;1.00;;
47219;SDS011;32961;51.936;4.788;2023-04-24T00:02:44;13.57;;;2.17;;
47219;SDS011;32961;51.936;4.788;2023-04-24T00:05:14;4.70;;;1.05;;
47219;SDS011;32961;51.936;4.788;2023-04-24T00:07:43;2.05;;;0.82;;
47219;SDS011;32961;51.936;4.788;2023-04-24T00:10:13;3.15;;;1.00;;
47219;SDS011;32961;51.936;4.788;2023-04-24T00:12:41;2.58;;;1.25;;
47219;SDS011;32961;51.936;4.788;2023-04-24T00:15:09;2.20;;;1.02;;
47219;SDS011;32961;51.936;4.788;2023-04-24T00:17:38;2.85;;;0.98;;
47219;SDS011;32961;51.936;4.788;2023-04-24T00:20:06;4.97;;;1.23;;
47219;SDS011;32961;51.936;4.788;2023-04-24T00:22:36;1.58;;;1.15;;
47219;SDS011;32961;51.936;4.788;2023-04-24T00:25:05;5.93;;;1.27;;
47219;SDS011;32961;51.936;4.788;2023-04-24T00:27:34;4.43;;;1.17;;
47219;SDS011;32961;51.936;4.788;2023-04-24T00:30:04;3.80;;;1.30;;
47219;SDS011;32961;51.936;4.788;2023-04-24T00:32:32;3.30;;;1.38;;
47219;SDS011;32961;51.936;4.788;2023-04-24T00:35:00;4.70;;;1.52;;
47219;SDS011;32961;51.936;4.788;2023-04-24T00:37:30;5.00;;;1.70;;
47219;SDS011;32961;51.936;4.788;2023-04-24T00:39:58;4.80;;;1.70;;
47219;SDS011;32961;51.936;4.788;2023-04-24T00:42:25;3.25;;;1.70;;
47219;SDS011;32961;51.936;4.788;2023-04-24T00:44:55;3.67;;;1.50;;
47219;SDS011;32961;51.936;4.788;2023-04-24T00:47:23;3.15;;;1.70;;
47219;SDS011;32961;51.936;4.788;2023-04-24T00:49:53;5.80;;;1.88;;
47219;SDS011;32961;51.936;4.788;2023-04-24T00:52:20;4.13;;;2.25;;
47219;SDS011;32961;51.936;4.788;2023-04-24T00:54:50;3.45;;;1.60;;
47219;SDS011;32961;51.936;4.788;2023-04-24T00:57:18;3.40;;;1.75;;
47219;SDS011;32961;51.936;4.788;2023-04-24T00:59:46;2.95;;;1.95;;
47219;SDS011;32961;51.936;4.788;2023-04-24T01:02:16;3.60;;;1.88;;
47219;SDS011;32961;51.936;4.788;2023-04-24T01:04:45;5.57;;;2.20;;
47219;SDS011;32961;51.936;4.788;2023-04-24T01:07:13;5.57;;;2.30;;
47219;SDS011;32961;51.936;4.788;2023-04-24T01:09:40;3.40;;;1.88;;
47219;SDS011;32961;51.936;4.788;2023-04-24T01:12:10;2.85;;;1.70;;
47219;SDS011;32961;51.936;4.788;2023-04-24T01:14:38;3.05;;;1.88;;
47219;SDS011;32961;51.936;4.788;2023-04-24T01:17:06;3.60;;;1.88;;
47219;SDS011;32961;51.936;4.788;2023-04-24T01:19:36;2.88;;;1.77;;
47219;SDS011;32961;51.936;4.788;2023-04-24T01:22:08;3.08;;;1.90;;
47219;SDS011;32961;51.936;4.788;2023-04-24T01:24:38;4.80;;;2.08;;
47219;SDS011;32961;51.936;4.788;2023-04-24T01:27:06;4.47;;;2.50;;
47219;SDS011;32961;51.936;4.788;2023-04-24T01:29:34;3.83;;;2.90;;
47219;SDS011;32961;51.936;4.788;2023-04-24T01:32:02;5.68;;;2.50;;
47219;SDS011;32961;51.936;4.788;2023-04-24T01:34:31;4.10;;;2.55;;
47219;SDS011;32961;51.936;4.788;2023-04-24T01:36:59;3.65;;;2.80;;
47219;SDS011;32961;51.936;4.788;2023-04-24T01:39:30;4.72;;;2.20;;
47219;SDS011;32961;51.936;4.788;2023-04-24T01:41:58;4.20;;;2.70;;
47219;SDS011;32961;51.936;4.788;2023-04-24T01:44:27;4.45;;;2.58;;
47219;SDS011;32961;51.936;4.788;2023-04-24T01:46:55;2.53;;;2.30;;
47219;SDS011;32961;51.936;4.788;2023-04-24T01:49:24;3.78;;;2.60;;
47219;SDS011;32961;51.936;4.788;2023-04-24T01:51:52;6.60;;;2.63;;
47219;SDS011;32961;51.936;4.788;2023-04-24T01:54:19;4.32;;;2.17;;
47219;SDS011;32961;51.936;4.788;2023-04-24T01:56:49;5.55;;;2.78;;
47219;SDS011;32961;51.936;4.788;2023-04-24T01:59:17;6.80;;;2.55;;
47219;SDS011;32961;51.936;4.788;2023-04-24T02:01:45;7.10;;;3.15;;
47219;SDS011;32961;51.936;4.788;2023-04-24T02:04:13;4.93;;;2.90;;
47219;SDS011;32961;51.936;4.788;2023-04-24T02:06:42;5.57;;;3.20;;
47219;SDS011;32961;51.936;4.788;2023-04-24T02:09:10;6.38;;;3.63;;
47219;SDS011;32961;51.936;4.788;2023-04-24T02:11:38;9.90;;;3.58;;
47219;SDS011;32961;51.936;4.788;2023-04-24T02:14:07;10.57;;;4.13;;
47219;SDS011;32961;51.936;4.788;2023-04-24T02:16:35;7.85;;;3.60;;
47219;SDS011;32961;51.936;4.788;2023-04-24T02:19:03;11.15;;;3.53;;
47219;SDS011;32961;51.936;4.788;2023-04-24T02:21:31;8.75;;;3.40;;
47219;SDS011;32961;51.936;4.788;2023-04-24T02:23:59;11.23;;;3.40;;
47219;SDS011;32961;51.936;4.788;2023-04-24T02:26:27;8.48;;;3.72;;
47219;SDS011;32961;51.936;4.788;2023-04-24T02:28:55;5.55;;;3.13;;
47219;SDS011;32961;51.936;4.788;2023-04-24T02:31:24;5.68;;;4.20;;
47219;SDS011;32961;51.936;4.788;2023-04-24T02:33:52;6.00;;;3.40;;
47219;SDS011;32961;51.936;4.788;2023-04-24T02:36:20;6.88;;;3.50;;
47219;SDS011;32961;51.936;4.788;2023-04-24T02:38:48;8.77;;;3.45;;
47219;SDS011;32961;51.936;4.788;2023-04-24T02:41:15;5.90;;;3.42;;
47219;SDS011;32961;51.936;4.788;2023-04-24T02:43:43;4.63;;;2.85;;
47219;SDS011;32961;51.936;4.788;2023-04-24T02:46:11;5.47;;;3.00;;
47219;SDS011;32961;51.936;4.788;2023-04-24T02:48:40;3.58;;;2.92;;
47219;SDS011;32961;51.936;4.788;2023-04-24T02:51:08;3.38;;;2.75;;
47219;SDS011;32961;51.936;4.788;2023-04-24T02:53:36;4.45;;;3.03;;
47219;SDS011;32961;51.936;4.788;2023-04-24T02:56:04;5.97;;;3.03;;
47219;SDS011;32961;51.936;4.788;2023-04-24T02:58:32;6.63;;;3.60;;
47219;SDS011;32961;51.936;4.788;2023-04-24T03:01:00;5.45;;;3.67;;
47219;SDS011;32961;51.936;4.788;2023-04-24T03:03:28;5.03;;;3.35;;
47219;SDS011;32961;51.936;4.788;2023-04-24T03:05:57;5.80;;;3.45;;
47219;SDS011;32961;51.936;4.788;2023-04-24T03:08:25;4.40;;;2.75;;
47219;SDS011;32961;51.936;4.788;2023-04-24T03:10:53;3.67;;;1.90;;
47219;SDS011;32961;51.936;4.788;2023-04-24T03:13:21;2.88;;;1.83;;
47219;SDS011;32961;51.936;4.788;2023-04-24T03:15:48;4.75;;;1.65;;
47219;SDS011;32961;51.936;4.788;2023-04-24T03:18:17;2.53;;;1.70;;
47219;SDS011;32961;51.936;4.788;2023-04-24T03:20:45;1.67;;;1.58;;
47219;SDS011;32961;51.936;4.788;2023-04-24T03:23:15;2.50;;;1.70;;
47219;SDS011;32961;51.936;4.788;2023-04-24T03:25:42;2.60;;;1.90;;
47219;SDS011;32961;51.936;4.788;2023-04-24T03:28:10;2.92;;;1.92;;
47219;SDS011;32961;51.936;4.788;2023-04-24T03:30:38;2.13;;;1.88;;
47219;SDS011;32961;51.936;4.788;2023-04-24T03:33:06;1.73;;;1.40;;
47219;SDS011;32961;51.936;4.788;2023-04-24T03:35:34;5.93;;;1.52;;
47219;SDS011;32961;51.936;4.788;2023-04-24T03:38:02;1.98;;;1.48;;
47219;SDS011;32961;51.936;4.788;2023-04-24T03:40:32;3.00;;;1.20;;
47219;SDS011;32961;51.936;4.788;2023-04-24T03:43:00;1.08;;;0.88;;
47219;SDS011;32961;51.936;4.788;2023-04-24T03:45:28;2.60;;;0.80;;
47219;SDS011;32961;51.936;4.788;2023-04-24T03:47:56;2.92;;;0.80;;
47219;SDS011;32961;51.936;4.788;2023-04-24T03:50:24;2.72;;;0.90;;
47219;SDS011;32961;51.936;4.788;2023-04-24T03:52:52;1.58;;;1.17;;
47219;SDS011;32961;51.936;4.788;2023-04-24T03:55:20;3.55;;;0.85;;
47219;SDS011;32961;51.936;4.788;2023-04-24T03:57:49;4.97;;;1.05;;
47219;SDS011;32961;51.936;4.788;2023-04-24T04:00:17;2.35;;;1.02;;
47219;SDS011;32961;51.936;4.788;2023-04-24T04:02:47;1.10;;;1.00;;
47219;SDS011;32961;51.936;4.788;2023-04-24T04:05:15;2.28;;;1.20;;
47219;SDS011;32961;51.936;4.788;2023-04-24T04:07:43;2.50;;;1.58;;
47219;SDS011;32961;51.936;4.788;2023-04-24T04:10:10;4.78;;;1.35;;
47219;SDS011;32961;51.936;4.788;2023-04-24T04:12:38;4.90;;;1.77;;
47219;SDS011;32961;51.936;4.788;2023-04-24T04:15:08;3.85;;;2.33;;
47219;SDS011;32961;51.936;4.788;2023-04-24T04:17:36;4.07;;;2.45;;
47219;SDS011;32961;51.936;4.788;2023-04-24T04:20:05;2.97;;;1.90;;
47219;SDS011;32961;51.936;4.788;2023-04-24T04:22:36;5.85;;;2.28;;
47219;SDS011;32961;51.936;4.788;2023-04-24T04:25:04;2.22;;;1.40;;
47219;SDS011;32961;51.936;4.788;2023-04-24T04:27:32;1.65;;;1.50;;
47219;SDS011;32961;51.936;4.788;2023-04-24T04:30:00;3.25;;;1.80;;
47219;SDS011;32961;51.936;4.788;2023-04-24T04:32:32;1.67;;;1.38;;
47219;SDS011;32961;51.936;4.788;2023-04-24T04:35:00;9.30;;;5.47;;
47219;SDS011;32961;51.936;4.788;2023-04-24T04:37:29;8.23;;;4.45;;
47219;SDS011;32961;51.936;4.788;2023-04-24T04:39:57;3.80;;;1.80;;
47219;SDS011;32961;51.936;4.788;2023-04-24T04:42:26;6.82;;;1.70;;
47219;SDS011;32961;51.936;4.788;2023-04-24T04:44:54;1.88;;;1.30;;
47219;SDS011;32961;51.936;4.788;2023-04-24T04:47:23;4.80;;;1.80;;
47219;SDS011;32961;51.936;4.788;2023-04-24T04:49:54;2.85;;;1.58;;
47219;SDS011;32961;51.936;4.788;2023-04-24T04:52:22;2.28;;;1.30;;
47219;SDS011;32961;51.936;4.788;2023-04-24T04:54:51;1.95;;;1.20;;
47219;SDS011;32961;51.936;4.788;2023-04-24T04:57:19;10.30;;;5.95;;
47219;SDS011;32961;51.936;4.788;2023-04-24T04:59:47;1.50;;;1.40;;
47219;SDS011;32961;51.936;4.788;2023-04-24T05:02:15;2.90;;;1.33;;
47219;SDS011;32961;51.936;4.788;2023-04-24T05:04:43;2.65;;;1.25;;
47219;SDS011;32961;51.936;4.788;2023-04-24T05:07:13;1.52;;;1.20;;
47219;SDS011;32961;51.936;4.788;2023-04-24T05:09:41;4.10;;;1.40;;
47219;SDS011;32961;51.936;4.788;2023-04-24T05:12:09;2.03;;;1.20;;
47219;SDS011;32961;51.936;4.788;2023-04-24T05:14:37;1.42;;;1.10;;
47219;SDS011;32961;51.936;4.788;2023-04-24T05:17:05;2.38;;;1.23;;
47219;SDS011;32961;51.936;4.788;2023-04-24T05:19:33;3.13;;;1.20;;
47219;SDS011;32961;51.936;4.788;2023-04-24T05:22:02;3.10;;;1.80;;
47219;SDS011;32961;51.936;4.788;2023-04-24T05:24:34;3.67;;;2.00;;
47219;SDS011;32961;51.936;4.788;2023-04-24T05:27:02;6.78;;;2.90;;
47219;SDS011;32961;51.936;4.788;2023-04-24T05:29:31;11.45;;;3.05;;
47219;SDS011;32961;51.936;4.788;2023-04-24T05:31:59;4.00;;;2.60;;
47219;SDS011;32961;51.936;4.788;2023-04-24T05:34:27;7.35;;;3.15;;
47219;SDS011;32961;51.936;4.788;2023-04-24T05:36:56;8.98;;;3.83;;
47219;SDS011;32961;51.936;4.788;2023-04-24T05:39:24;7.43;;;3.60;;
47219;SDS011;32961;51.936;4.788;2023-04-24T05:41:53;13.90;;;5.20;;
47219;SDS011;32961;51.936;4.788;2023-04-24T05:44:24;6.68;;;5.20;;
47219;SDS011;32961;51.936;4.788;2023-04-24T05:46:52;13.13;;;7.60;;
47219;SDS011;32961;51.936;4.788;2023-04-24T05:49:21;21.00;;;8.93;;
47219;SDS011;32961;51.936;4.788;2023-04-24T05:51:50;14.60;;;8.68;;
47219;SDS011;32961;51.936;4.788;2023-04-24T05:54:17;28.92;;;14.48;;
47219;SDS011;32961;51.936;4.788;2023-04-24T05:56:45;21.08;;;10.23;;
47219;SDS011;32961;51.936;4.788;2023-04-24T05:59:15;18.67;;;9.38;;
47219;SDS011;32961;51.936;4.788;2023-04-24T06:01:43;22.58;;;10.30;;
47219;SDS011;32961;51.936;4.788;2023-04-24T06:04:11;23.77;;;9.43;;
47219;SDS011;32961;51.936;4.788;2023-04-24T06:06:40;22.10;;;9.85;;
47219;SDS011;32961;51.936;4.788;2023-04-24T06:09:08;18.42;;;9.27;;
47219;SDS011;32961;51.936;4.788;2023-04-24T06:11:36;20.63;;;9.70;;
47219;SDS011;32961;51.936;4.788;2023-04-24T06:14:04;23.08;;;9.77;;
47219;SDS011;32961;51.936;4.788;2023-04-24T06:16:33;15.77;;;8.68;;
47219;SDS011;32961;51.936;4.788;2023-04-24T06:19:01;21.63;;;9.07;;
47219;SDS011;32961;51.936;4.788;2023-04-24T06:21:29;21.48;;;9.32;;
47219;SDS011;32961;51.936;4.788;2023-04-24T06:23:57;23.90;;;9.68;;
47219;SDS011;32961;51.936;4.788;2023-04-24T06:26:26;24.38;;;8.98;;
47219;SDS011;32961;51.936;4.788;2023-04-24T06:28:53;16.45;;;8.40;;
47219;SDS011;32961;51.936;4.788;2023-04-24T06:31:21;28.38;;;9.13;;
47219;SDS011;32961;51.936;4.788;2023-04-24T06:33:50;21.67;;;7.97;;
47219;SDS011;32961;51.936;4.788;2023-04-24T06:36:18;21.58;;;8.07;;
47219;SDS011;32961;51.936;4.788;2023-04-24T06:38:46;22.88;;;8.05;;
47219;SDS011;32961;51.936;4.788;2023-04-24T06:41:14;32.22;;;7.78;;
47219;SDS011;32961;51.936;4.788;2023-04-24T06:43:44;25.23;;;6.35;;
47219;SDS011;32961;51.936;4.788;2023-04-24T06:46:12;20.88;;;5.90;;
47219;SDS011;32961;51.936;4.788;2023-04-24T06:48:40;28.10;;;5.85;;
47219;SDS011;32961;51.936;4.788;2023-04-24T06:51:09;23.85;;;7.22;;
47219;SDS011;32961;51.936;4.788;2023-04-24T06:53:37;25.20;;;5.68;;
47219;SDS011;32961;51.936;4.788;2023-04-24T06:56:05;27.90;;;5.40;;
47219;SDS011;32961;51.936;4.788;2023-04-24T06:58:33;21.73;;;4.75;;
47219;SDS011;32961;51.936;4.788;2023-04-24T07:01:01;25.05;;;6.78;;
47219;SDS011;32961;51.936;4.788;2023-04-24T07:03:29;27.80;;;5.20;;
47219;SDS011;32961;51.936;4.788;2023-04-24T07:05:57;29.67;;;6.20;;
47219;SDS011;32961;51.936;4.788;2023-04-24T07:08:26;26.02;;;6.32;;
47219;SDS011;32961;51.936;4.788;2023-04-24T07:10:56;30.48;;;5.22;;
47219;SDS011;32961;51.936;4.788;2023-04-24T07:13:24;20.38;;;5.65;;
47219;SDS011;32961;51.936;4.788;2023-04-24T07:15:53;23.88;;;6.10;;
47219;SDS011;32961;51.936;4.788;2023-04-24T07:18:22;22.23;;;4.63;;
47219;SDS011;32961;51.936;4.788;2023-04-24T07:20:50;27.08;;;5.72;;
47219;SDS011;32961;51.936;4.788;2023-04-24T07:23:18;22.17;;;4.25;;
47219;SDS011;32961;51.936;4.788;2023-04-24T07:25:48;19.80;;;4.35;;
47219;SDS011;32961;51.936;4.788;2023-04-24T07:28:16;17.65;;;3.58;;
47219;SDS011;32961;51.936;4.788;2023-04-24T07:30:44;17.48;;;3.67;;
47219;SDS011;32961;51.936;4.788;2023-04-24T07:33:12;16.73;;;3.40;;
47219;SDS011;32961;51.936;4.788;2023-04-24T07:35:40;23.17;;;3.97;;
47219;SDS011;32961;51.936;4.788;2023-04-24T07:38:08;18.92;;;3.97;;
47219;SDS011;32961;51.936;4.788;2023-04-24T07:40:36;19.00;;;4.95;;
47219;SDS011;32961;51.936;4.788;2023-04-24T07:43:05;23.83;;;4.63;;
47219;SDS011;32961;51.936;4.788;2023-04-24T07:45:33;31.10;;;4.68;;
47219;SDS011;32961;51.936;4.788;2023-04-24T07:48:03;18.40;;;3.95;;
47219;SDS011;32961;51.936;4.788;2023-04-24T07:50:31;20.20;;;3.75;;
47219;SDS011;32961;51.936;4.788;2023-04-24T07:52:59;22.02;;;3.67;;
47219;SDS011;32961;51.936;4.788;2023-04-24T07:55:27;18.30;;;4.32;;
47219;SDS011;32961;51.936;4.788;2023-04-24T07:57:55;21.13;;;4.22;;
47219;SDS011;32961;51.936;4.788;2023-04-24T08:00:24;14.63;;;3.22;;
47219;SDS011;32961;51.936;4.788;2023-04-24T08:02:52;23.58;;;3.92;;
47219;SDS011;32961;51.936;4.788;2023-04-24T08:05:20;20.77;;;4.35;;
47219;SDS011;32961;51.936;4.788;2023-04-24T08:07:48;19.95;;;3.33;;
47219;SDS011;32961;51.936;4.788;2023-04-24T08:10:16;18.05;;;3.15;;
47219;SDS011;32961;51.936;4.788;2023-04-24T08:12:44;21.52;;;3.85;;
47219;SDS011;32961;51.936;4.788;2023-04-24T08:15:12;23.50;;;4.95;;
47219;SDS011;32961;51.936;4.788;2023-04-24T08:17:41;20.50;;;3.53;;
47219;SDS011;32961;51.936;4.788;2023-04-24T08:20:10;19.60;;;4.28;;
47219;SDS011;32961;51.936;4.788;2023-04-24T08:22:40;18.98;;;3.25;;
47219;SDS011;32961;51.936;4.788;2023-04-24T08:25:08;16.65;;;3.83;;
47219;SDS011;32961;51.936;4.788;2023-04-24T08:27:37;17.70;;;3.97;;
47219;SDS011;32961;51.936;4.788;2023-04-24T08:30:05;22.52;;;4.20;;
47219;SDS011;32961;51.936;4.788;2023-04-24T08:32:34;15.57;;;3.53;;
47219;SDS011;32961;51.936;4.788;2023-04-24T08:35:04;14.07;;;3.92;;
47219;SDS011;32961;51.936;4.788;2023-04-24T08:37:32;18.90;;;3.47;;
47219;SDS011;32961;51.936;4.788;2023-04-24T08:40:00;13.45;;;2.83;;
47219;SDS011;32961;51.936;4.788;2023-04-24T08:42:28;16.20;;;2.95;;
47219;SDS011;32961;51.936;4.788;2023-04-24T08:44:59;19.40;;;3.03;;
47219;SDS011;32961;51.936;4.788;2023-04-24T08:47:28;21.33;;;3.15;;
47219;SDS011;32961;51.936;4.788;2023-04-24T08:49:57;15.43;;;3.83;;
47219;SDS011;32961;51.936;4.788;2023-04-24T08:52:30;17.77;;;3.15;;
47219;SDS011;32961;51.936;4.788;2023-04-24T08:54:59;9.20;;;2.13;;
47219;SDS011;32961;51.936;4.788;2023-04-24T08:57:28;11.25;;;2.17;;
47219;SDS011;32961;51.936;4.788;2023-04-24T08:59:56;9.63;;;2.10;;
47219;SDS011;32961;51.936;4.788;2023-04-24T09:02:25;8.52;;;2.42;;
47219;SDS011;32961;51.936;4.788;2023-04-24T09:04:54;9.98;;;2.10;;
47219;SDS011;32961;51.936;4.788;2023-04-24T09:07:24;7.30;;;1.98;;
47219;SDS011;32961;51.936;4.788;2023-04-24T09:09:53;6.18;;;1.85;;
47219;SDS011;32961;51.936;4.788;2023-04-24T09:12:22;8.35;;;2.15;;
47219;SDS011;32961;51.936;4.788;2023-04-24T09:14:53;7.50;;;2.15;;
47219;SDS011;32961;51.936;4.788;2023-04-24T09:17:22;8.98;;;2.05;;
47219;SDS011;32961;51.936;4.788;2023-04-24T09:19:53;8.50;;;2.58;;
47219;SDS011;32961;51.936;4.788;2023-04-24T09:22:21;9.88;;;2.17;;
47219;SDS011;32961;51.936;4.788;2023-04-24T09:25:00;7.95;;;1.80;;
47219;SDS011;32961;51.936;4.788;2023-04-24T09:27:31;6.22;;;1.67;;
47219;SDS011;32961;51.936;4.788;2023-04-24T09:30:00;7.93;;;1.48;;
47219;SDS011;32961;51.936;4.788;2023-04-24T09:32:31;6.15;;;1.75;;
47219;SDS011;32961;51.936;4.788;2023-04-24T09:35:05;9.50;;;2.25;;
47219;SDS011;32961;51.936;4.788;2023-04-24T09:37:36;10.75;;;2.10;;
47219;SDS011;32961;51.936;4.788;2023-04-24T09:40:10;9.13;;;2.35;;
47219;SDS011;32961;51.936;4.788;2023-04-24T09:42:39;8.10;;;1.60;;
47219;SDS011;32961;51.936;4.788;2023-04-24T09:45:10;9.43;;;1.25;;
47219;SDS011;32961;51.936;4.788;2023-04-24T09:47:42;7.63;;;1.40;;
47219;SDS011;32961;51.936;4.788;2023-04-24T09:50:11;5.43;;;1.20;;
47219;SDS011;32961;51.936;4.788;2023-04-24T09:52:42;5.82;;;1.27;;
47219;SDS011;32961;51.936;4.788;2023-04-24T09:55:16;6.28;;;1.40;;
47219;SDS011;32961;51.936;4.788;2023-04-24T09:57:49;8.20;;;1.95;;
47219;SDS011;32961;51.936;4.788;2023-04-24T10:00:21;4.95;;;1.50;;
47219;SDS011;32961;51.936;4.788;2023-04-24T10:02:54;10.60;;;1.98;;
47219;SDS011;32961;51.936;4.788;2023-04-24T10:05:23;6.00;;;1.40;;
47219;SDS011;32961;51.936;4.788;2023-04-24T10:07:55;5.60;;;1.83;;
47219;SDS011;32961;51.936;4.788;2023-04-24T10:10:25;3.70;;;1.48;;
47219;SDS011;32961;51.936;4.788;2023-04-24T10:12:54;5.60;;;1.52;;
47219;SDS011;32961;51.936;4.788;2023-04-24T10:15:24;6.22;;;1.42;;
47219;SDS011;32961;51.936;4.788;2023-04-24T10:17:54;5.15;;;1.33;;
47219;SDS011;32961;51.936;4.788;2023-04-24T10:20:22;3.85;;;1.00;;
47219;SDS011;32961;51.936;4.788;2023-04-24T10:22:52;10.02;;;2.38;;
47219;SDS011;32961;51.936;4.788;2023-04-24T10:25:24;9.75;;;1.38;;
47219;SDS011;32961;51.936;4.788;2023-04-24T10:27:54;12.00;;;1.90;;
47219;SDS011;32961;51.936;4.788;2023-04-24T10:30:26;7.47;;;1.50;;
47219;SDS011;32961;51.936;4.788;2023-04-24T10:32:54;8.18;;;1.50;;
47219;SDS011;32961;51.936;4.788;2023-04-24T10:35:22;8.13;;;1.50;;
47219;SDS011;32961;51.936;4.788;2023-04-24T10:37:54;10.23;;;2.15;;
47219;SDS011;32961;51.936;4.788;2023-04-24T10:40:27;5.25;;;1.40;;
47219;SDS011;32961;51.936;4.788;2023-04-24T10:42:58;8.55;;;1.75;;
47219;SDS011;32961;51.936;4.788;2023-04-24T10:45:27;4.22;;;1.08;;
47219;SDS011;32961;51.936;4.788;2023-04-24T10:47:58;15.05;;;1.58;;
47219;SDS011;32961;51.936;4.788;2023-04-24T10:50:41;4.65;;;1.17;;
47219;SDS011;32961;51.936;4.788;2023-04-24T10:53:15;6.43;;;1.40;;
47219;SDS011;32961;51.936;4.788;2023-04-24T10:55:45;4.05;;;1.20;;
47219;SDS011;32961;51.936;4.788;2023-04-24T10:58:14;5.68;;;1.27;;
47219;SDS011;32961;51.936;4.788;2023-04-24T11:00:44;5.53;;;1.25;;
47219;SDS011;32961;51.936;4.788;2023-04-24T11:03:26;8.75;;;1.40;;
47219;SDS011;32961;51.936;4.788;2023-04-24T11:05:56;4.38;;;1.48;;
47219;SDS011;32961;51.936;4.788;2023-04-24T11:08:29;3.88;;;1.20;;
47219;SDS011;32961;51.936;4.788;2023-04-24T11:16:33;8.40;;;1.70;;
47219;SDS011;32961;51.936;4.788;2023-04-24T11:19:05;7.22;;;1.27;;
47219;SDS011;32961;51.936;4.788;2023-04-24T11:21:40;10.23;;;1.90;;
47219;SDS011;32961;51.936;4.788;2023-04-24T11:24:25;10.40;;;2.10;;
47219;SDS011;32961;51.936;4.788;2023-04-24T11:27:11;7.47;;;1.60;;
47219;SDS011;32961;51.936;4.788;2023-04-24T11:29:43;11.10;;;2.00;;
47219;SDS011;32961;51.936;4.788;2023-04-24T11:32:16;8.68;;;1.60;;
47219;SDS011;32961;51.936;4.788;2023-04-24T11:34:46;6.43;;;1.40;;
47219;SDS011;32961;51.936;4.788;2023-04-24T11:37:15;2.47;;;0.75;;
47219;SDS011;32961;51.936;4.788;2023-04-24T11:39:43;5.32;;;0.88;;
47219;SDS011;32961;51.936;4.788;2023-04-24T11:42:12;4.95;;;1.33;;
47219;SDS011;32961;51.936;4.788;2023-04-24T11:44:42;3.15;;;0.90;;
47219;SDS011;32961;51.936;4.788;2023-04-24T11:47:10;0.98;;;0.70;;
47219;SDS011;32961;51.936;4.788;2023-04-24T11:49:38;4.18;;;0.90;;
47219;SDS011;32961;51.936;4.788;2023-04-24T11:52:06;3.97;;;0.90;;
47219;SDS011;32961;51.936;4.788;2023-04-24T11:54:37;2.30;;;0.85;;
47219;SDS011;32961;51.936;4.788;2023-04-24T11:57:05;7.78;;;1.55;;
47219;SDS011;32961;51.936;4.788;2023-04-24T11:59:36;5.15;;;1.13;;
47219;SDS011;32961;51.936;4.788;2023-04-24T12:02:05;6.18;;;1.35;;
47219;SDS011;32961;51.936;4.788;2023-04-24T12:04:39;8.13;;;1.90;;
47219;SDS011;32961;51.936;4.788;2023-04-24T12:07:08;11.43;;;1.67;;
47219;SDS011;32961;51.936;4.788;2023-04-24T12:09:40;5.78;;;1.50;;
47219;SDS011;32961;51.936;4.788;2023-04-24T12:12:10;6.80;;;1.65;;
47219;SDS011;32961;51.936;4.788;2023-04-24T12:14:44;7.15;;;1.35;;
47219;SDS011;32961;51.936;4.788;2023-04-24T12:17:12;4.85;;;1.30;;
47219;SDS011;32961;51.936;4.788;2023-04-24T12:19:44;10.50;;;2.15;;
47219;SDS011;32961;51.936;4.788;2023-04-24T12:22:13;5.00;;;1.45;;
47219;SDS011;32961;51.936;4.788;2023-04-24T12:24:56;9.73;;;1.95;;
47219;SDS011;32961;51.936;4.788;2023-04-24T12:27:28;10.52;;;2.05;;
47219;SDS011;32961;51.936;4.788;2023-04-24T12:29:58;9.40;;;2.50;;
47219;SDS011;32961;51.936;4.788;2023-04-24T12:32:27;12.07;;;2.25;;
47219;SDS011;32961;51.936;4.788;2023-04-24T12:34:55;7.47;;;2.03;;
47219;SDS011;32961;51.936;4.788;2023-04-24T12:37:24;10.73;;;2.13;;
47219;SDS011;32961;51.936;4.788;2023-04-24T12:39:59;9.45;;;1.90;;
47219;SDS011;32961;51.936;4.788;2023-04-24T12:42:28;13.90;;;2.08;;
47219;SDS011;32961;51.936;4.788;2023-04-24T12:44:59;10.25;;;1.98;;
47219;SDS011;32961;51.936;4.788;2023-04-24T12:47:28;7.75;;;1.90;;
47219;SDS011;32961;51.936;4.788;2023-04-24T12:49:56;11.18;;;2.60;;
47219;SDS011;32961;51.936;4.788;2023-04-24T12:52:25;14.35;;;2.45;;
47219;SDS011;32961;51.936;4.788;2023-04-24T12:54:54;7.53;;;2.13;;
47219;SDS011;32961;51.936;4.788;2023-04-24T12:57:24;9.60;;;2.53;;
47219;SDS011;32961;51.936;4.788;2023-04-24T12:59:53;19.73;;;4.43;;
47219;SDS011;32961;51.936;4.788;2023-04-24T13:02:23;13.85;;;3.15;;
47219;SDS011;32961;51.936;4.788;2023-04-24T13:04:52;12.35;;;3.08;;
47219;SDS011;32961;51.936;4.788;2023-04-24T13:07:21;12.00;;;2.72;;
47219;SDS011;32961;51.936;4.788;2023-04-24T13:09:49;11.00;;;3.08;;
47219;SDS011;32961;51.936;4.788;2023-04-24T13:12:19;17.38;;;2.75;;
47219;SDS011;32961;51.936;4.788;2023-04-24T13:14:53;13.73;;;2.60;;
47219;SDS011;32961;51.936;4.788;2023-04-24T13:17:23;8.88;;;2.28;;
47219;SDS011;32961;51.936;4.788;2023-04-24T13:19:51;10.32;;;3.33;;
47219;SDS011;32961;51.936;4.788;2023-04-24T13:22:21;15.05;;;3.65;;
47219;SDS011;32961;51.936;4.788;2023-04-24T13:24:49;18.40;;;2.70;;
47219;SDS011;32961;51.936;4.788;2023-04-24T13:27:17;14.98;;;2.80;;
47219;SDS011;32961;51.936;4.788;2023-04-24T13:29:45;14.90;;;3.20;;
47219;SDS011;32961;51.936;4.788;2023-04-24T13:32:13;22.25;;;3.42;;
47219;SDS011;32961;51.936;4.788;2023-04-24T13:34:43;17.80;;;2.97;;
47219;SDS011;32961;51.936;4.788;2023-04-24T13:37:11;17.33;;;3.75;;
47219;SDS011;32961;51.936;4.788;2023-04-24T13:39:38;16.80;;;2.80;;
47219;SDS011;32961;51.936;4.788;2023-04-24T13:42:07;13.10;;;3.28;;
47219;SDS011;32961;51.936;4.788;2023-04-24T13:44:35;14.48;;;2.92;;
47219;SDS011;32961;51.936;4.788;2023-04-24T13:47:04;13.27;;;2.67;;
47219;SDS011;32961;51.936;4.788;2023-04-24T13:49:32;14.13;;;3.00;;
47219;SDS011;32961;51.936;4.788;2023-04-24T13:52:01;9.98;;;2.85;;
47219;SDS011;32961;51.936;4.788;2023-04-24T13:54:30;7.85;;;2.70;;
47219;SDS011;32961;51.936;4.788;2023-04-24T13:56:59;12.63;;;2.85;;
47219;SDS011;32961;51.936;4.788;2023-04-24T13:59:27;10.55;;;2.58;;
47219;SDS011;32961;51.936;4.788;2023-04-24T14:01:55;9.77;;;2.67;;
47219;SDS011;32961;51.936;4.788;2023-04-24T14:04:23;11.35;;;2.60;;
47219;SDS011;32961;51.936;4.788;2023-04-24T14:06:52;10.70;;;3.10;;
47219;SDS011;32961;51.936;4.788;2023-04-24T14:09:21;15.65;;;3.28;;
47219;SDS011;32961;51.936;4.788;2023-04-24T14:11:49;7.05;;;2.72;;
47219;SDS011;32961;51.936;4.788;2023-04-24T14:14:19;9.88;;;2.95;;
47219;SDS011;32961;51.936;4.788;2023-04-24T14:16:47;12.70;;;2.67;;
47219;SDS011;32961;51.936;4.788;2023-04-24T14:19:15;11.20;;;2.83;;
47219;SDS011;32961;51.936;4.788;2023-04-24T14:21:43;10.30;;;2.80;;
47219;SDS011;32961;51.936;4.788;2023-04-24T14:24:11;12.35;;;2.55;;
47219;SDS011;32961;51.936;4.788;2023-04-24T14:26:42;10.57;;;2.50;;
47219;SDS011;32961;51.936;4.788;2023-04-24T14:29:10;13.40;;;3.00;;
47219;SDS011;32961;51.936;4.788;2023-04-24T14:31:40;11.57;;;3.03;;
47219;SDS011;32961;51.936;4.788;2023-04-24T14:34:09;13.43;;;2.78;;
47219;SDS011;32961;51.936;4.788;2023-04-24T14:36:37;11.80;;;3.03;;
47219;SDS011;32961;51.936;4.788;2023-04-24T14:39:05;14.13;;;3.58;;
47219;SDS011;32961;51.936;4.788;2023-04-24T14:41:34;14.00;;;3.78;;
47219;SDS011;32961;51.936;4.788;2023-04-24T14:44:04;14.75;;;3.45;;
47219;SDS011;32961;51.936;4.788;2023-04-24T14:46:32;12.10;;;3.17;;
47219;SDS011;32961;51.936;4.788;2023-04-24T14:49:00;9.02;;;2.70;;
47219;SDS011;32961;51.936;4.788;2023-04-24T14:51:28;14.10;;;3.65;;
47219;SDS011;32961;51.936;4.788;2023-04-24T14:53:57;11.15;;;3.28;;
47219;SDS011;32961;51.936;4.788;2023-04-24T14:56:25;22.83;;;3.83;;
47219;SDS011;32961;51.936;4.788;2023-04-24T14:58:54;12.27;;;3.17;;